sensor_id;sensor_type;location;lat;lon;timestamp;P1;durP1;ratioP1;P2;durP2;ratioP2
49223;SDS011;35050;51.316;5.994;2024-01-11T00:00:48;32.05;;;16.45;;
49223;SDS011;35050;51.316;5.994;2024-01-11T00:03:14;34.17;;;17.00;;
49223;SDS011;35050;51.316;5.994;2024-01-11T00:05:40;33.92;;;17.60;;
49223;SDS011;35050;51.316;5.994;2024-01-11T00:08:06;30.17;;;15.45;;
49223;SDS011;35050;51.316;5.994;2024-01-11T00:10:32;32.67;;;16.73;;
49223;SDS011;35050;51.316;5.994;2024-01-11T00:12:58;32.15;;;16.40;;
49223;SDS011;35050;51.316;5.994;2024-01-11T00:15:24;29.80;;;16.15;;
49223;SDS011;35050;51.316;5.994;2024-01-11T00:17:49;34.85;;;16.27;;
49223;SDS011;35050;51.316;5.994;2024-01-11T00:20:15;28.42;;;15.20;;
49223;SDS011;35050;51.316;5.994;2024-01-11T00:22:41;26.52;;;15.10;;
49223;SDS011;35050;51.316;5.994;2024-01-11T00:25:07;29.50;;;15.82;;
49223;SDS011;35050;51.316;5.994;2024-01-11T00:27:33;29.25;;;16.02;;
49223;SDS011;35050;51.316;5.994;2024-01-11T00:29:59;29.45;;;15.98;;
49223;SDS011;35050;51.316;5.994;2024-01-11T00:32:24;27.17;;;15.32;;
49223;SDS011;35050;51.316;5.994;2024-01-11T00:34:50;30.58;;;17.45;;
49223;SDS011;35050;51.316;5.994;2024-01-11T00:37:16;28.67;;;16.00;;
49223;SDS011;35050;51.316;5.994;2024-01-11T00:39:41;30.02;;;16.58;;
49223;SDS011;35050;51.316;5.994;2024-01-11T00:42:07;30.23;;;15.65;;
49223;SDS011;35050;51.316;5.994;2024-01-11T00:44:33;29.75;;;16.35;;
49223;SDS011;35050;51.316;5.994;2024-01-11T00:46:59;33.22;;;17.52;;
49223;SDS011;35050;51.316;5.994;2024-01-11T00:49:24;29.63;;;16.50;;
49223;SDS011;35050;51.316;5.994;2024-01-11T00:51:50;28.45;;;16.45;;
49223;SDS011;35050;51.316;5.994;2024-01-11T00:54:15;30.83;;;16.73;;
49223;SDS011;35050;51.316;5.994;2024-01-11T00:56:41;34.33;;;17.02;;
49223;SDS011;35050;51.316;5.994;2024-01-11T00:59:06;30.05;;;16.20;;
49223;SDS011;35050;51.316;5.994;2024-01-11T01:01:32;30.23;;;16.95;;
49223;SDS011;35050;51.316;5.994;2024-01-11T01:03:58;31.25;;;17.55;;
49223;SDS011;35050;51.316;5.994;2024-01-11T01:06:24;30.27;;;17.13;;
49223;SDS011;35050;51.316;5.994;2024-01-11T01:08:49;34.42;;;17.58;;
49223;SDS011;35050;51.316;5.994;2024-01-11T01:11:15;30.30;;;16.65;;
49223;SDS011;35050;51.316;5.994;2024-01-11T01:13:40;29.95;;;18.05;;
49223;SDS011;35050;51.316;5.994;2024-01-11T01:16:06;31.70;;;17.15;;
49223;SDS011;35050;51.316;5.994;2024-01-11T01:18:32;30.65;;;16.90;;
49223;SDS011;35050;51.316;5.994;2024-01-11T01:20:57;34.20;;;18.17;;
49223;SDS011;35050;51.316;5.994;2024-01-11T01:23:23;33.58;;;17.65;;
49223;SDS011;35050;51.316;5.994;2024-01-11T01:25:48;32.92;;;17.70;;
49223;SDS011;35050;51.316;5.994;2024-01-11T01:28:14;34.83;;;18.33;;
49223;SDS011;35050;51.316;5.994;2024-01-11T01:30:40;34.50;;;17.58;;
49223;SDS011;35050;51.316;5.994;2024-01-11T01:33:05;32.90;;;18.38;;
49223;SDS011;35050;51.316;5.994;2024-01-11T01:35:31;31.33;;;16.63;;
49223;SDS011;35050;51.316;5.994;2024-01-11T01:37:57;32.08;;;18.27;;
49223;SDS011;35050;51.316;5.994;2024-01-11T01:40:22;33.05;;;17.60;;
49223;SDS011;35050;51.316;5.994;2024-01-11T01:42:48;31.67;;;17.88;;
49223;SDS011;35050;51.316;5.994;2024-01-11T01:45:14;27.40;;;15.90;;
49223;SDS011;35050;51.316;5.994;2024-01-11T01:47:41;28.38;;;16.60;;
49223;SDS011;35050;51.316;5.994;2024-01-11T01:50:09;30.60;;;17.50;;
49223;SDS011;35050;51.316;5.994;2024-01-11T01:52:36;31.55;;;18.05;;
49223;SDS011;35050;51.316;5.994;2024-01-11T01:55:03;36.83;;;18.45;;
49223;SDS011;35050;51.316;5.994;2024-01-11T01:57:30;33.20;;;18.27;;
49223;SDS011;35050;51.316;5.994;2024-01-11T01:59:59;34.03;;;17.23;;
49223;SDS011;35050;51.316;5.994;2024-01-11T02:02:27;31.75;;;17.30;;
49223;SDS011;35050;51.316;5.994;2024-01-11T02:04:53;30.63;;;17.25;;
49223;SDS011;35050;51.316;5.994;2024-01-11T02:07:19;31.02;;;18.15;;
49223;SDS011;35050;51.316;5.994;2024-01-11T02:09:45;33.35;;;18.02;;
49223;SDS011;35050;51.316;5.994;2024-01-11T02:12:12;36.17;;;18.17;;
49223;SDS011;35050;51.316;5.994;2024-01-11T02:14:40;32.25;;;17.25;;
49223;SDS011;35050;51.316;5.994;2024-01-11T02:17:05;33.55;;;18.27;;
49223;SDS011;35050;51.316;5.994;2024-01-11T02:19:31;34.05;;;18.55;;
49223;SDS011;35050;51.316;5.994;2024-01-11T02:22:00;35.17;;;17.85;;
49223;SDS011;35050;51.316;5.994;2024-01-11T02:24:30;33.50;;;18.15;;
49223;SDS011;35050;51.316;5.994;2024-01-11T02:27:02;34.15;;;18.10;;
49223;SDS011;35050;51.316;5.994;2024-01-11T02:29:30;34.60;;;17.17;;
49223;SDS011;35050;51.316;5.994;2024-01-11T02:31:56;32.50;;;17.95;;
49223;SDS011;35050;51.316;5.994;2024-01-11T02:34:23;32.35;;;17.75;;
49223;SDS011;35050;51.316;5.994;2024-01-11T02:36:51;33.72;;;18.63;;
49223;SDS011;35050;51.316;5.994;2024-01-11T02:39:17;36.45;;;18.95;;
49223;SDS011;35050;51.316;5.994;2024-01-11T02:41:44;31.73;;;17.02;;
49223;SDS011;35050;51.316;5.994;2024-01-11T02:44:10;34.50;;;17.15;;
49223;SDS011;35050;51.316;5.994;2024-01-11T02:46:36;35.38;;;17.33;;
49223;SDS011;35050;51.316;5.994;2024-01-11T02:49:02;33.22;;;17.67;;
49223;SDS011;35050;51.316;5.994;2024-01-11T02:51:27;33.42;;;18.63;;
49223;SDS011;35050;51.316;5.994;2024-01-11T02:53:53;29.27;;;16.63;;
49223;SDS011;35050;51.316;5.994;2024-01-11T02:56:19;31.80;;;18.17;;
49223;SDS011;35050;51.316;5.994;2024-01-11T02:58:44;34.85;;;19.33;;
49223;SDS011;35050;51.316;5.994;2024-01-11T03:01:10;36.25;;;17.98;;
49223;SDS011;35050;51.316;5.994;2024-01-11T03:03:36;33.05;;;17.85;;
49223;SDS011;35050;51.316;5.994;2024-01-11T03:06:01;35.13;;;19.33;;
49223;SDS011;35050;51.316;5.994;2024-01-11T03:08:27;33.30;;;17.83;;
49223;SDS011;35050;51.316;5.994;2024-01-11T03:10:53;34.95;;;18.70;;
49223;SDS011;35050;51.316;5.994;2024-01-11T03:13:19;31.13;;;17.65;;
49223;SDS011;35050;51.316;5.994;2024-01-11T03:15:44;33.28;;;18.20;;
49223;SDS011;35050;51.316;5.994;2024-01-11T03:18:10;34.78;;;17.65;;
49223;SDS011;35050;51.316;5.994;2024-01-11T03:20:35;34.97;;;17.70;;
49223;SDS011;35050;51.316;5.994;2024-01-11T03:23:01;34.50;;;18.80;;
49223;SDS011;35050;51.316;5.994;2024-01-11T03:25:27;31.58;;;17.45;;
49223;SDS011;35050;51.316;5.994;2024-01-11T03:27:54;35.20;;;17.98;;
49223;SDS011;35050;51.316;5.994;2024-01-11T03:30:20;33.67;;;18.17;;
49223;SDS011;35050;51.316;5.994;2024-01-11T03:32:46;33.70;;;18.05;;
49223;SDS011;35050;51.316;5.994;2024-01-11T03:35:11;37.38;;;18.05;;
49223;SDS011;35050;51.316;5.994;2024-01-11T03:37:37;33.03;;;18.10;;
49223;SDS011;35050;51.316;5.994;2024-01-11T03:40:03;35.70;;;19.35;;
49223;SDS011;35050;51.316;5.994;2024-01-11T03:42:29;33.85;;;17.42;;
49223;SDS011;35050;51.316;5.994;2024-01-11T03:44:54;36.38;;;18.85;;
49223;SDS011;35050;51.316;5.994;2024-01-11T03:47:20;34.70;;;18.08;;
49223;SDS011;35050;51.316;5.994;2024-01-11T03:49:46;35.45;;;19.52;;
49223;SDS011;35050;51.316;5.994;2024-01-11T03:52:12;34.70;;;18.15;;
49223;SDS011;35050;51.316;5.994;2024-01-11T03:54:37;41.25;;;20.88;;
49223;SDS011;35050;51.316;5.994;2024-01-11T03:57:03;32.03;;;18.60;;
49223;SDS011;35050;51.316;5.994;2024-01-11T03:59:29;34.85;;;18.70;;
49223;SDS011;35050;51.316;5.994;2024-01-11T04:01:55;36.53;;;18.63;;
49223;SDS011;35050;51.316;5.994;2024-01-11T04:04:22;34.63;;;17.60;;
49223;SDS011;35050;51.316;5.994;2024-01-11T04:06:48;36.72;;;18.88;;
49223;SDS011;35050;51.316;5.994;2024-01-11T04:09:14;32.83;;;18.00;;
49223;SDS011;35050;51.316;5.994;2024-01-11T04:11:40;31.92;;;17.73;;
49223;SDS011;35050;51.316;5.994;2024-01-11T04:14:05;35.70;;;19.73;;
49223;SDS011;35050;51.316;5.994;2024-01-11T04:16:31;34.28;;;18.55;;
49223;SDS011;35050;51.316;5.994;2024-01-11T04:18:57;35.13;;;18.10;;
49223;SDS011;35050;51.316;5.994;2024-01-11T04:21:23;34.60;;;18.38;;
49223;SDS011;35050;51.316;5.994;2024-01-11T04:23:53;37.95;;;19.50;;
49223;SDS011;35050;51.316;5.994;2024-01-11T04:26:19;35.42;;;18.95;;
49223;SDS011;35050;51.316;5.994;2024-01-11T04:28:45;37.22;;;20.15;;
49223;SDS011;35050;51.316;5.994;2024-01-11T04:31:11;36.08;;;19.85;;
49223;SDS011;35050;51.316;5.994;2024-01-11T04:33:41;40.55;;;20.67;;
49223;SDS011;35050;51.316;5.994;2024-01-11T04:36:07;36.40;;;19.70;;
49223;SDS011;35050;51.316;5.994;2024-01-11T04:38:33;34.53;;;18.67;;
49223;SDS011;35050;51.316;5.994;2024-01-11T04:40:59;37.33;;;19.67;;
49223;SDS011;35050;51.316;5.994;2024-01-11T04:43:24;35.40;;;19.48;;
49223;SDS011;35050;51.316;5.994;2024-01-11T04:45:51;35.33;;;19.00;;
49223;SDS011;35050;51.316;5.994;2024-01-11T04:48:16;37.22;;;19.50;;
49223;SDS011;35050;51.316;5.994;2024-01-11T04:50:43;35.22;;;19.95;;
49223;SDS011;35050;51.316;5.994;2024-01-11T04:53:09;35.17;;;19.67;;
49223;SDS011;35050;51.316;5.994;2024-01-11T04:55:35;32.33;;;17.52;;
49223;SDS011;35050;51.316;5.994;2024-01-11T04:58:01;35.47;;;19.48;;
49223;SDS011;35050;51.316;5.994;2024-01-11T05:00:26;31.92;;;18.85;;
49223;SDS011;35050;51.316;5.994;2024-01-11T05:02:52;32.78;;;18.27;;
49223;SDS011;35050;51.316;5.994;2024-01-11T05:05:18;33.85;;;18.10;;
49223;SDS011;35050;51.316;5.994;2024-01-11T05:07:43;36.38;;;19.48;;
49223;SDS011;35050;51.316;5.994;2024-01-11T05:10:09;38.72;;;19.75;;
49223;SDS011;35050;51.316;5.994;2024-01-11T05:12:34;39.17;;;19.15;;
49223;SDS011;35050;51.316;5.994;2024-01-11T05:15:01;35.45;;;18.48;;
49223;SDS011;35050;51.316;5.994;2024-01-11T05:17:27;35.97;;;19.38;;
49223;SDS011;35050;51.316;5.994;2024-01-11T05:19:53;37.20;;;19.42;;
49223;SDS011;35050;51.316;5.994;2024-01-11T05:22:19;38.40;;;20.40;;
49223;SDS011;35050;51.316;5.994;2024-01-11T05:24:44;35.92;;;18.83;;
49223;SDS011;35050;51.316;5.994;2024-01-11T05:27:10;35.60;;;18.58;;
49223;SDS011;35050;51.316;5.994;2024-01-11T05:29:35;34.88;;;18.08;;
49223;SDS011;35050;51.316;5.994;2024-01-11T05:32:01;34.17;;;18.17;;
49223;SDS011;35050;51.316;5.994;2024-01-11T05:34:27;35.20;;;19.63;;
49223;SDS011;35050;51.316;5.994;2024-01-11T05:36:52;35.05;;;18.27;;
49223;SDS011;35050;51.316;5.994;2024-01-11T05:39:18;36.55;;;19.45;;
49223;SDS011;35050;51.316;5.994;2024-01-11T05:41:44;35.22;;;18.17;;
49223;SDS011;35050;51.316;5.994;2024-01-11T05:44:10;37.25;;;20.13;;
49223;SDS011;35050;51.316;5.994;2024-01-11T05:46:36;33.78;;;19.45;;
49223;SDS011;35050;51.316;5.994;2024-01-11T05:49:01;34.67;;;19.30;;
49223;SDS011;35050;51.316;5.994;2024-01-11T05:51:27;38.58;;;20.15;;
49223;SDS011;35050;51.316;5.994;2024-01-11T05:53:53;35.20;;;18.77;;
49223;SDS011;35050;51.316;5.994;2024-01-11T05:56:18;34.15;;;19.30;;
49223;SDS011;35050;51.316;5.994;2024-01-11T05:58:45;37.33;;;19.73;;
49223;SDS011;35050;51.316;5.994;2024-01-11T06:01:11;35.60;;;18.90;;
49223;SDS011;35050;51.316;5.994;2024-01-11T06:03:37;37.05;;;19.35;;
49223;SDS011;35050;51.316;5.994;2024-01-11T06:06:04;35.50;;;18.85;;
49223;SDS011;35050;51.316;5.994;2024-01-11T06:08:30;36.40;;;17.90;;
49223;SDS011;35050;51.316;5.994;2024-01-11T06:10:56;33.08;;;17.73;;
49223;SDS011;35050;51.316;5.994;2024-01-11T06:13:25;38.58;;;18.83;;
49223;SDS011;35050;51.316;5.994;2024-01-11T06:15:51;34.97;;;18.02;;
49223;SDS011;35050;51.316;5.994;2024-01-11T06:18:17;30.38;;;17.33;;
49223;SDS011;35050;51.316;5.994;2024-01-11T06:20:42;32.65;;;18.05;;
49223;SDS011;35050;51.316;5.994;2024-01-11T06:23:08;37.67;;;19.98;;
49223;SDS011;35050;51.316;5.994;2024-01-11T06:25:33;34.97;;;18.35;;
49223;SDS011;35050;51.316;5.994;2024-01-11T06:27:59;31.42;;;17.00;;
49223;SDS011;35050;51.316;5.994;2024-01-11T06:30:25;33.63;;;18.05;;
49223;SDS011;35050;51.316;5.994;2024-01-11T06:32:50;34.10;;;18.05;;
49223;SDS011;35050;51.316;5.994;2024-01-11T06:35:16;30.45;;;16.80;;
49223;SDS011;35050;51.316;5.994;2024-01-11T06:37:42;34.05;;;18.92;;
49223;SDS011;35050;51.316;5.994;2024-01-11T06:40:08;34.22;;;17.80;;
49223;SDS011;35050;51.316;5.994;2024-01-11T06:42:34;35.20;;;18.25;;
49223;SDS011;35050;51.316;5.994;2024-01-11T06:45:00;31.65;;;17.10;;
49223;SDS011;35050;51.316;5.994;2024-01-11T06:47:26;33.92;;;18.63;;
49223;SDS011;35050;51.316;5.994;2024-01-11T06:49:52;32.47;;;16.55;;
49223;SDS011;35050;51.316;5.994;2024-01-11T06:52:18;35.05;;;17.92;;
49223;SDS011;35050;51.316;5.994;2024-01-11T06:54:44;35.28;;;18.70;;
49223;SDS011;35050;51.316;5.994;2024-01-11T06:57:10;33.50;;;18.83;;
49223;SDS011;35050;51.316;5.994;2024-01-11T06:59:36;34.25;;;17.75;;
49223;SDS011;35050;51.316;5.994;2024-01-11T07:02:02;29.55;;;17.05;;
49223;SDS011;35050;51.316;5.994;2024-01-11T07:04:28;35.50;;;17.17;;
49223;SDS011;35050;51.316;5.994;2024-01-11T07:06:53;31.98;;;17.00;;
49223;SDS011;35050;51.316;5.994;2024-01-11T07:09:19;33.20;;;17.92;;
49223;SDS011;35050;51.316;5.994;2024-01-11T07:11:45;33.00;;;17.25;;
49223;SDS011;35050;51.316;5.994;2024-01-11T07:14:11;34.80;;;17.88;;
49223;SDS011;35050;51.316;5.994;2024-01-11T07:16:36;33.65;;;17.35;;
49223;SDS011;35050;51.316;5.994;2024-01-11T07:19:02;33.80;;;17.42;;
49223;SDS011;35050;51.316;5.994;2024-01-11T07:21:28;36.15;;;19.17;;
49223;SDS011;35050;51.316;5.994;2024-01-11T07:23:59;32.67;;;17.52;;
49223;SDS011;35050;51.316;5.994;2024-01-11T07:26:25;31.65;;;17.38;;
49223;SDS011;35050;51.316;5.994;2024-01-11T07:28:51;35.80;;;18.60;;
49223;SDS011;35050;51.316;5.994;2024-01-11T07:31:19;34.75;;;19.20;;
49223;SDS011;35050;51.316;5.994;2024-01-11T07:33:45;36.47;;;17.88;;
49223;SDS011;35050;51.316;5.994;2024-01-11T07:36:11;33.72;;;18.15;;
49223;SDS011;35050;51.316;5.994;2024-01-11T07:38:37;31.38;;;17.20;;
49223;SDS011;35050;51.316;5.994;2024-01-11T07:41:02;36.60;;;18.85;;
49223;SDS011;35050;51.316;5.994;2024-01-11T07:43:28;28.33;;;16.13;;
49223;SDS011;35050;51.316;5.994;2024-01-11T07:45:54;33.47;;;17.15;;
49223;SDS011;35050;51.316;5.994;2024-01-11T07:48:23;36.00;;;18.75;;
49223;SDS011;35050;51.316;5.994;2024-01-11T07:50:49;31.92;;;18.00;;
49223;SDS011;35050;51.316;5.994;2024-01-11T07:53:14;33.22;;;17.35;;
49223;SDS011;35050;51.316;5.994;2024-01-11T07:55:40;33.53;;;18.17;;
49223;SDS011;35050;51.316;5.994;2024-01-11T07:58:06;32.75;;;17.17;;
49223;SDS011;35050;51.316;5.994;2024-01-11T08:00:32;34.83;;;17.80;;
49223;SDS011;35050;51.316;5.994;2024-01-11T08:02:58;34.17;;;18.67;;
49223;SDS011;35050;51.316;5.994;2024-01-11T08:05:24;36.55;;;18.40;;
49223;SDS011;35050;51.316;5.994;2024-01-11T08:07:50;32.92;;;18.55;;
49223;SDS011;35050;51.316;5.994;2024-01-11T08:10:16;30.50;;;17.08;;
49223;SDS011;35050;51.316;5.994;2024-01-11T08:12:42;32.42;;;17.48;;
49223;SDS011;35050;51.316;5.994;2024-01-11T08:15:07;31.17;;;16.38;;
49223;SDS011;35050;51.316;5.994;2024-01-11T08:17:37;33.25;;;17.42;;
49223;SDS011;35050;51.316;5.994;2024-01-11T08:20:04;30.52;;;17.05;;
49223;SDS011;35050;51.316;5.994;2024-01-11T08:22:33;30.98;;;16.52;;
49223;SDS011;35050;51.316;5.994;2024-01-11T08:25:01;31.45;;;17.80;;
49223;SDS011;35050;51.316;5.994;2024-01-11T08:27:29;30.95;;;17.92;;
49223;SDS011;35050;51.316;5.994;2024-01-11T08:29:56;30.73;;;16.27;;
49223;SDS011;35050;51.316;5.994;2024-01-11T08:32:22;33.92;;;17.20;;
49223;SDS011;35050;51.316;5.994;2024-01-11T08:34:47;31.05;;;16.80;;
49223;SDS011;35050;51.316;5.994;2024-01-11T08:37:13;32.88;;;16.58;;
49223;SDS011;35050;51.316;5.994;2024-01-11T08:39:39;26.65;;;14.77;;
49223;SDS011;35050;51.316;5.994;2024-01-11T08:42:05;30.13;;;15.73;;
49223;SDS011;35050;51.316;5.994;2024-01-11T08:44:31;31.25;;;16.85;;
49223;SDS011;35050;51.316;5.994;2024-01-11T08:46:57;28.88;;;16.23;;
49223;SDS011;35050;51.316;5.994;2024-01-11T08:49:24;36.10;;;17.95;;
49223;SDS011;35050;51.316;5.994;2024-01-11T08:51:50;35.05;;;18.00;;
49223;SDS011;35050;51.316;5.994;2024-01-11T08:54:15;30.60;;;17.50;;
49223;SDS011;35050;51.316;5.994;2024-01-11T08:56:44;30.25;;;17.73;;
49223;SDS011;35050;51.316;5.994;2024-01-11T08:59:10;27.77;;;15.77;;
49223;SDS011;35050;51.316;5.994;2024-01-11T09:01:35;30.60;;;16.55;;
49223;SDS011;35050;51.316;5.994;2024-01-11T09:04:02;33.55;;;17.75;;
49223;SDS011;35050;51.316;5.994;2024-01-11T09:06:28;36.28;;;18.50;;
49223;SDS011;35050;51.316;5.994;2024-01-11T09:08:54;30.42;;;17.27;;
49223;SDS011;35050;51.316;5.994;2024-01-11T09:11:19;34.50;;;19.27;;
49223;SDS011;35050;51.316;5.994;2024-01-11T09:13:45;36.35;;;18.85;;
49223;SDS011;35050;51.316;5.994;2024-01-11T09:16:14;33.90;;;17.27;;
49223;SDS011;35050;51.316;5.994;2024-01-11T09:18:43;33.47;;;16.63;;
49223;SDS011;35050;51.316;5.994;2024-01-11T09:21:09;34.08;;;18.63;;
49223;SDS011;35050;51.316;5.994;2024-01-11T09:23:35;35.60;;;17.92;;
49223;SDS011;35050;51.316;5.994;2024-01-11T09:26:01;31.63;;;17.17;;
49223;SDS011;35050;51.316;5.994;2024-01-11T09:28:27;31.45;;;18.15;;
49223;SDS011;35050;51.316;5.994;2024-01-11T09:30:52;34.97;;;19.17;;
49223;SDS011;35050;51.316;5.994;2024-01-11T09:33:19;35.63;;;19.27;;
49223;SDS011;35050;51.316;5.994;2024-01-11T09:35:44;34.50;;;19.52;;
49223;SDS011;35050;51.316;5.994;2024-01-11T09:38:10;32.85;;;18.08;;
49223;SDS011;35050;51.316;5.994;2024-01-11T09:40:36;37.25;;;19.23;;
49223;SDS011;35050;51.316;5.994;2024-01-11T09:43:02;35.10;;;18.85;;
49223;SDS011;35050;51.316;5.994;2024-01-11T09:45:29;35.45;;;19.13;;
49223;SDS011;35050;51.316;5.994;2024-01-11T09:47:55;32.88;;;18.33;;
49223;SDS011;35050;51.316;5.994;2024-01-11T09:50:21;32.95;;;18.58;;
49223;SDS011;35050;51.316;5.994;2024-01-11T09:52:49;40.45;;;20.20;;
49223;SDS011;35050;51.316;5.994;2024-01-11T09:55:15;35.83;;;19.65;;
49223;SDS011;35050;51.316;5.994;2024-01-11T09:57:47;35.65;;;19.63;;
49223;SDS011;35050;51.316;5.994;2024-01-11T10:00:16;32.95;;;18.83;;
49223;SDS011;35050;51.316;5.994;2024-01-11T10:02:45;31.77;;;18.33;;
49223;SDS011;35050;51.316;5.994;2024-01-11T10:05:11;33.92;;;17.27;;
49223;SDS011;35050;51.316;5.994;2024-01-11T10:07:39;33.03;;;19.08;;
49223;SDS011;35050;51.316;5.994;2024-01-11T10:10:04;35.45;;;19.02;;
49223;SDS011;35050;51.316;5.994;2024-01-11T10:12:34;32.17;;;18.52;;
49223;SDS011;35050;51.316;5.994;2024-01-11T10:15:06;32.33;;;18.73;;
49223;SDS011;35050;51.316;5.994;2024-01-11T10:17:45;34.10;;;18.52;;
49223;SDS011;35050;51.316;5.994;2024-01-11T10:20:11;35.05;;;17.25;;
49223;SDS011;35050;51.316;5.994;2024-01-11T10:22:39;32.95;;;18.58;;
49223;SDS011;35050;51.316;5.994;2024-01-11T10:27:39;35.65;;;18.92;;
49223;SDS011;35050;51.316;5.994;2024-01-11T10:30:07;31.35;;;18.30;;
49223;SDS011;35050;51.316;5.994;2024-01-11T10:32:33;30.08;;;18.02;;
49223;SDS011;35050;51.316;5.994;2024-01-11T10:34:59;36.33;;;18.33;;
49223;SDS011;35050;51.316;5.994;2024-01-11T10:37:29;32.38;;;18.60;;
49223;SDS011;35050;51.316;5.994;2024-01-11T10:39:57;36.28;;;19.65;;
49223;SDS011;35050;51.316;5.994;2024-01-11T10:42:27;33.00;;;19.13;;
49223;SDS011;35050;51.316;5.994;2024-01-11T10:44:56;35.10;;;18.42;;
49223;SDS011;35050;51.316;5.994;2024-01-11T10:47:30;34.63;;;20.30;;
49223;SDS011;35050;51.316;5.994;2024-01-11T10:49:57;29.73;;;17.65;;
49223;SDS011;35050;51.316;5.994;2024-01-11T10:52:27;30.42;;;17.48;;
49223;SDS011;35050;51.316;5.994;2024-01-11T10:55:01;31.67;;;18.60;;
49223;SDS011;35050;51.316;5.994;2024-01-11T10:57:27;34.08;;;20.17;;
49223;SDS011;35050;51.316;5.994;2024-01-11T10:59:54;39.13;;;20.88;;
49223;SDS011;35050;51.316;5.994;2024-01-11T11:02:22;31.10;;;18.80;;
49223;SDS011;35050;51.316;5.994;2024-01-11T11:04:48;36.78;;;19.98;;
49223;SDS011;35050;51.316;5.994;2024-01-11T11:07:16;33.13;;;18.70;;
49223;SDS011;35050;51.316;5.994;2024-01-11T11:09:44;32.42;;;17.75;;
49223;SDS011;35050;51.316;5.994;2024-01-11T11:12:11;32.70;;;18.27;;
49223;SDS011;35050;51.316;5.994;2024-01-11T11:14:38;35.22;;;18.80;;
49223;SDS011;35050;51.316;5.994;2024-01-11T11:17:03;33.03;;;17.42;;
49223;SDS011;35050;51.316;5.994;2024-01-11T11:19:30;30.15;;;17.67;;
49223;SDS011;35050;51.316;5.994;2024-01-11T11:21:56;29.35;;;17.13;;
49223;SDS011;35050;51.316;5.994;2024-01-11T11:24:21;30.85;;;18.60;;
49223;SDS011;35050;51.316;5.994;2024-01-11T11:26:47;34.97;;;18.25;;
49223;SDS011;35050;51.316;5.994;2024-01-11T11:29:14;29.02;;;17.27;;
49223;SDS011;35050;51.316;5.994;2024-01-11T11:31:46;32.10;;;17.33;;
49223;SDS011;35050;51.316;5.994;2024-01-11T11:34:39;30.13;;;17.73;;
49223;SDS011;35050;51.316;5.994;2024-01-11T11:37:09;29.27;;;17.90;;
49223;SDS011;35050;51.316;5.994;2024-01-11T11:39:36;28.13;;;16.33;;
49223;SDS011;35050;51.316;5.994;2024-01-11T11:42:03;27.20;;;16.58;;
49223;SDS011;35050;51.316;5.994;2024-01-11T11:44:29;29.95;;;17.77;;
49223;SDS011;35050;51.316;5.994;2024-01-11T11:46:55;29.63;;;18.02;;
49223;SDS011;35050;51.316;5.994;2024-01-11T11:52:30;27.55;;;17.27;;
49223;SDS011;35050;51.316;5.994;2024-01-11T11:54:59;29.20;;;17.23;;
49223;SDS011;35050;51.316;5.994;2024-01-11T11:57:26;38.35;;;18.60;;
49223;SDS011;35050;51.316;5.994;2024-01-11T11:59:56;29.90;;;17.65;;
49223;SDS011;35050;51.316;5.994;2024-01-11T12:02:28;31.20;;;18.38;;
49223;SDS011;35050;51.316;5.994;2024-01-11T12:04:53;28.80;;;16.70;;
49223;SDS011;35050;51.316;5.994;2024-01-11T12:07:20;27.90;;;16.38;;
49223;SDS011;35050;51.316;5.994;2024-01-11T12:09:47;28.67;;;17.08;;
49223;SDS011;35050;51.316;5.994;2024-01-11T12:12:13;28.05;;;16.23;;
49223;SDS011;35050;51.316;5.994;2024-01-11T12:14:39;26.15;;;15.70;;
49223;SDS011;35050;51.316;5.994;2024-01-11T12:17:06;28.67;;;16.92;;
49223;SDS011;35050;51.316;5.994;2024-01-11T12:19:32;32.13;;;18.17;;
49223;SDS011;35050;51.316;5.994;2024-01-11T12:21:58;28.10;;;17.17;;
49223;SDS011;35050;51.316;5.994;2024-01-11T12:24:24;27.25;;;16.55;;
49223;SDS011;35050;51.316;5.994;2024-01-11T12:26:50;31.33;;;16.42;;
49223;SDS011;35050;51.316;5.994;2024-01-11T12:29:19;28.73;;;15.73;;
49223;SDS011;35050;51.316;5.994;2024-01-11T12:31:45;27.73;;;16.25;;
49223;SDS011;35050;51.316;5.994;2024-01-11T12:34:14;29.27;;;17.05;;
49223;SDS011;35050;51.316;5.994;2024-01-11T12:36:40;30.90;;;17.15;;
49223;SDS011;35050;51.316;5.994;2024-01-11T12:39:06;26.83;;;15.30;;
49223;SDS011;35050;51.316;5.994;2024-01-11T12:41:34;27.50;;;16.02;;
49223;SDS011;35050;51.316;5.994;2024-01-11T12:44:00;30.02;;;16.40;;
49223;SDS011;35050;51.316;5.994;2024-01-11T12:46:27;31.60;;;17.13;;
49223;SDS011;35050;51.316;5.994;2024-01-11T12:48:52;30.42;;;16.45;;
49223;SDS011;35050;51.316;5.994;2024-01-11T12:51:18;33.03;;;17.10;;
49223;SDS011;35050;51.316;5.994;2024-01-11T12:53:45;29.75;;;16.55;;
49223;SDS011;35050;51.316;5.994;2024-01-11T12:56:13;26.27;;;15.88;;
49223;SDS011;35050;51.316;5.994;2024-01-11T12:58:41;27.73;;;15.70;;
49223;SDS011;35050;51.316;5.994;2024-01-11T13:01:07;29.90;;;15.85;;
49223;SDS011;35050;51.316;5.994;2024-01-11T13:03:33;30.05;;;16.67;;
49223;SDS011;35050;51.316;5.994;2024-01-11T13:06:01;27.88;;;16.77;;
49223;SDS011;35050;51.316;5.994;2024-01-11T13:08:27;32.67;;;18.15;;
49223;SDS011;35050;51.316;5.994;2024-01-11T13:10:53;26.83;;;15.75;;
49223;SDS011;35050;51.316;5.994;2024-01-11T13:13:19;27.48;;;16.10;;
49223;SDS011;35050;51.316;5.994;2024-01-11T13:15:45;25.80;;;15.55;;
49223;SDS011;35050;51.316;5.994;2024-01-11T13:18:11;25.95;;;15.38;;
49223;SDS011;35050;51.316;5.994;2024-01-11T13:20:37;25.55;;;16.30;;
49223;SDS011;35050;51.316;5.994;2024-01-11T13:25:41;28.65;;;15.27;;
49223;SDS011;35050;51.316;5.994;2024-01-11T13:28:08;26.70;;;14.88;;
49223;SDS011;35050;51.316;5.994;2024-01-11T13:30:34;30.20;;;16.80;;
49223;SDS011;35050;51.316;5.994;2024-01-11T13:33:00;30.58;;;16.48;;
49223;SDS011;35050;51.316;5.994;2024-01-11T13:35:26;29.20;;;17.48;;
49223;SDS011;35050;51.316;5.994;2024-01-11T13:37:52;28.95;;;17.25;;
49223;SDS011;35050;51.316;5.994;2024-01-11T13:40:18;32.47;;;18.77;;
49223;SDS011;35050;51.316;5.994;2024-01-11T13:42:44;29.23;;;16.95;;
49223;SDS011;35050;51.316;5.994;2024-01-11T13:45:09;30.83;;;17.30;;
49223;SDS011;35050;51.316;5.994;2024-01-11T13:47:36;26.05;;;17.13;;
49223;SDS011;35050;51.316;5.994;2024-01-11T13:50:01;29.02;;;17.48;;
49223;SDS011;35050;51.316;5.994;2024-01-11T13:52:27;30.42;;;17.73;;
49223;SDS011;35050;51.316;5.994;2024-01-11T13:54:53;28.95;;;16.33;;
49223;SDS011;35050;51.316;5.994;2024-01-11T13:57:18;29.45;;;17.92;;
49223;SDS011;35050;51.316;5.994;2024-01-11T13:59:44;27.95;;;17.40;;
49223;SDS011;35050;51.316;5.994;2024-01-11T14:02:10;31.55;;;16.88;;
49223;SDS011;35050;51.316;5.994;2024-01-11T14:04:35;33.90;;;18.63;;
49223;SDS011;35050;51.316;5.994;2024-01-11T14:07:01;31.88;;;17.95;;
49223;SDS011;35050;51.316;5.994;2024-01-11T14:09:29;28.98;;;16.70;;
49223;SDS011;35050;51.316;5.994;2024-01-11T14:11:55;31.75;;;18.55;;
49223;SDS011;35050;51.316;5.994;2024-01-11T14:14:20;29.52;;;17.98;;
49223;SDS011;35050;51.316;5.994;2024-01-11T14:16:46;31.23;;;17.17;;
49223;SDS011;35050;51.316;5.994;2024-01-11T14:19:12;29.55;;;18.33;;
49223;SDS011;35050;51.316;5.994;2024-01-11T14:21:39;27.67;;;17.02;;
49223;SDS011;35050;51.316;5.994;2024-01-11T14:24:04;29.23;;;17.40;;